Time;durP1;ratioP1;P1;durP2;ratioP2;P2;SDS_P1;SDS_P2;PMS_P1;PMS_P2;Temp;Humidity;BMP_temperature;BMP_pressure;BME280_temperature;BME280_humidity;BME280_pressure;Samples;Min_cycle;Max_cycle;Signal;HPM_P1;HPM_P2
2021/03/16 00:02:10;;;;;;;;;;;5.80;99.90;;;;;;5033825;28;19915;-76
2021/03/16 00:04:35;;;;;;;;;;;5.70;99.90;;;;;;5033294;28;19936;-78
2021/03/16 00:07:04;;;;;;;;;;;5.70;99.90;;;;;;5034207;28;20012;-78
2021/03/16 00:09:29;;;;;;;;;;;5.70;99.90;;;;;;5034315;28;20468;-77
2021/03/16 00:11:55;;;;;;;;;;;5.60;99.90;;;;;;5033872;28;19925;-76
2021/03/16 00:14:20;;;;;;;;;;;5.50;99.90;;;;;;5033098;28;20339;-78
2021/03/16 00:16:46;;;;;;;;;;;5.50;99.90;;;;;;5033313;28;19909;-76
2021/03/16 00:19:11;;;;;;;;;;;5.50;99.90;;;;;;5032224;28;19966;-78
2021/03/16 00:21:37;;;;;;;;;;;5.50;99.90;;;;;;5033223;28;19909;-78
2021/03/16 00:24:02;;;;;;;;;;;5.30;99.90;;;;;;5033412;28;20006;-79
2021/03/16 00:26:28;;;;;;;;;;;5.20;99.90;;;;;;5034962;28;19909;-78
2021/03/16 00:28:53;;;;;;;;;;;5.20;99.90;;;;;;5033797;28;19909;-77
2021/03/16 00:31:19;;;;;;;;;;;5.30;99.90;;;;;;5034134;28;20312;-79
2021/03/16 00:33:44;;;;;;;;;;;5.40;99.90;;;;;;5032308;28;19979;-78
2021/03/16 00:36:09;;;;;;;;;;;5.40;99.90;;;;;;5031655;28;19996;-77
2021/03/16 00:38:35;;;;;;;;;;;5.40;99.90;;;;;;5033148;28;19916;-77
2021/03/16 00:41:00;;;;;;;;;;;5.30;99.90;;;;;;5032961;28;19909;-77
2021/03/16 00:43:26;;;;;;;;;;;5.10;99.90;;;;;;5032073;28;19917;-77
2021/03/16 00:45:51;;;;;;;;;;;5.10;99.90;;;;;;5031684;28;19910;-76
2021/03/16 00:48:17;;;;;;;;;;;5.10;99.90;;;;;;5032470;28;19909;-76
2021/03/16 00:50:43;;;;;;;;;;;5.10;99.90;;;;;;5031319;28;19917;-77
2021/03/16 00:53:09;;;;;;;;;;;5.00;99.90;;;;;;5031265;28;19913;-77
2021/03/16 00:55:34;;;;;;;;;;;5.00;99.90;;;;;;5031185;28;19910;-77
2021/03/16 00:58:00;;;;;;;;;;;5.00;99.90;;;;;;5032703;28;19910;-76
2021/03/16 01:00:25;;;;;;;;;;;5.00;99.90;;;;;;5031426;28;19917;-77
2021/03/16 01:02:51;;;;;;;;;;;5.00;99.90;;;;;;5031400;28;19910;-76
2021/03/16 01:05:16;;;;;;;;;;;5.10;99.90;;;;;;5031243;28;19909;-77
2021/03/16 01:07:42;;;;;;;;;;;5.30;99.90;;;;;;5032411;28;20062;-77
2021/03/16 01:10:09;;;;;;;;;;;5.40;99.90;;;;;;5032208;28;20380;-77
2021/03/16 01:12:34;;;;;;;;;;;5.40;99.90;;;;;;5031098;28;20004;-77
2021/03/16 01:15:00;;;;;;;;;;;5.40;99.90;;;;;;5030630;28;19995;-76
2021/03/16 01:17:25;;;;;;;;;;;5.40;99.90;;;;;;5030745;28;19985;-76
2021/03/16 01:19:51;;;;;;;;;;;5.40;99.90;;;;;;5031585;28;19910;-78
2021/03/16 01:22:16;;;;;;;;;;;5.50;99.90;;;;;;5034215;28;19925;-76
2021/03/16 01:24:42;;;;;;;;;;;5.60;99.90;;;;;;5032433;28;19909;-77
2021/03/16 01:27:07;;;;;;;;;;;5.50;99.90;;;;;;5030840;28;19960;-77
2021/03/16 01:29:32;;;;;;;;;;;5.50;99.90;;;;;;5031175;28;19909;-77
2021/03/16 01:31:58;;;;;;;;;;;5.50;99.90;;;;;;5033825;28;20357;-77
2021/03/16 01:34:24;;;;;;;;;;;5.60;99.90;;;;;;5038878;28;19919;-78
2021/03/16 01:36:50;;;;;;;;;;;5.50;99.90;;;;;;5036767;28;20284;-77
2021/03/16 01:39:15;;;;;;;;;;;5.50;99.90;;;;;;5034540;28;19917;-76
2021/03/16 01:41:41;;;;;;;;;;;5.50;99.90;;;;;;5034593;28;20402;-77
2021/03/16 01:44:06;;;;;;;;;;;5.50;99.90;;;;;;5035611;28;19909;-77
2021/03/16 01:46:32;;;;;;;;;;;5.40;99.90;;;;;;5034311;28;19960;-76
2021/03/16 01:48:57;;;;;;;;;;;5.40;99.90;;;;;;5035351;28;19909;-77
2021/03/16 01:51:23;;;;;;;;;;;5.30;99.90;;;;;;5035550;28;20244;-77
2021/03/16 01:53:48;;;;;;;;;;;5.30;99.90;;;;;;5033419;28;19920;-77
2021/03/16 01:56:14;;;;;;;;;;;5.40;99.90;;;;;;5035720;28;19972;-77
2021/03/16 01:58:40;;;;;;;;;;;5.30;99.90;;;;;;5035175;28;19909;-77
2021/03/16 02:01:06;;;;;;;;;;;5.30;99.90;;;;;;5036326;28;19913;-77
2021/03/16 02:03:31;;;;;;;;;;;5.40;99.90;;;;;;5034494;28;19909;-77
2021/03/16 02:05:57;;;;;;;;;;;5.50;99.90;;;;;;5036144;28;19909;-78
2021/03/16 02:08:33;;;;;;;;;;;5.50;99.90;;;;;;5034806;28;20356;-78
2021/03/16 02:10:59;;;;;;;;;;;5.40;99.90;;;;;;5034041;28;19932;-77
2021/03/16 02:13:41;;;;;;;;;;;5.30;99.90;;;;;;5034772;28;20368;-77
2021/03/16 02:16:13;;;;;;;;;;;5.40;99.90;;;;;;5035944;28;19924;-77
2021/03/16 02:18:41;;;;;;;;;;;5.40;99.90;;;;;;5033926;28;19916;-77
2021/03/16 02:21:19;;;;;;;;;;;5.30;99.90;;;;;;5034639;28;19921;-78
2021/03/16 02:23:57;;;;;;;;;;;5.30;99.90;;;;;;5033696;28;19909;-77
2021/03/16 02:26:25;;;;;;;;;;;5.20;99.90;;;;;;5034677;28;19916;-76
2021/03/16 02:28:59;;;;;;;;;;;5.20;99.90;;;;;;5033027;28;20385;-77
2021/03/16 02:31:27;;;;;;;;;;;5.30;99.90;;;;;;5035152;28;19957;-78
2021/03/16 02:33:53;;;;;;;;;;;5.20;99.90;;;;;;5035337;28;19975;-79
2021/03/16 02:36:19;;;;;;;;;;;5.20;99.90;;;;;;5035482;28;19952;-79
2021/03/16 02:38:46;;;;;;;;;;;5.20;99.90;;;;;;5035094;28;20352;-78
2021/03/16 02:41:13;;;;;;;;;;;5.20;99.90;;;;;;5035275;28;20008;-78
2021/03/16 02:43:39;;;;;;;;;;;5.20;99.90;;;;;;5033423;28;20009;-76
2021/03/16 02:46:05;;;;;;;;;;;5.30;99.90;;;;;;5034238;28;19944;-76
2021/03/16 02:48:31;;;;;;;;;;;5.20;99.90;;;;;;5034116;28;19917;-79
2021/03/16 02:50:56;;;;;;;;;;;5.30;99.90;;;;;;5033850;28;19909;-76
2021/03/16 02:53:23;;;;;;;;;;;5.30;99.90;;;;;;5033766;28;20264;-78
2021/03/16 02:55:49;;;;;;;;;;;5.30;99.90;;;;;;5033841;28;19972;-77
2021/03/16 02:58:15;;;;;;;;;;;5.30;99.90;;;;;;5034020;28;19947;-79
2021/03/16 03:00:42;;;;;;;;;;;5.30;99.90;;;;;;5034890;28;19909;-78
2021/03/16 03:03:08;;;;;;;;;;;5.40;99.90;;;;;;5036159;28;19913;-79
2021/03/16 03:05:34;;;;;;;;;;;5.40;99.90;;;;;;5035143;28;19909;-78
2021/03/16 03:08:00;;;;;;;;;;;5.30;99.90;;;;;;5034977;28;19909;-77
2021/03/16 03:10:25;;;;;;;;;;;5.20;99.90;;;;;;5035049;28;20342;-78
2021/03/16 03:12:51;;;;;;;;;;;5.10;99.90;;;;;;5033920;28;19919;-79
2021/03/16 03:15:17;;;;;;;;;;;5.10;99.90;;;;;;5034752;28;19910;-79
2021/03/16 03:17:42;;;;;;;;;;;5.10;99.90;;;;;;5034666;28;19971;-76
2021/03/16 03:20:09;;;;;;;;;;;5.10;99.90;;;;;;5034769;28;20303;-76
2021/03/16 03:22:41;;;;;;;;;;;5.10;99.90;;;;;;5032575;28;19909;-77
2021/03/16 03:25:27;;;;;;;;;;;5.10;99.90;;;;;;5034158;28;19913;-78
2021/03/16 03:27:56;;;;;;;;;;;5.00;99.90;;;;;;5030082;28;19931;-78
2021/03/16 03:30:23;;;;;;;;;;;5.00;99.90;;;;;;5033980;28;20368;-77
2021/03/16 03:32:49;;;;;;;;;;;5.00;99.90;;;;;;5033350;28;19917;-77
2021/03/16 03:35:15;;;;;;;;;;;5.10;99.90;;;;;;5034131;28;19987;-78
2021/03/16 03:37:41;;;;;;;;;;;5.10;99.90;;;;;;5034420;28;20055;-77
2021/03/16 03:40:07;;;;;;;;;;;5.10;99.90;;;;;;5034233;28;19913;-77
2021/03/16 03:42:33;;;;;;;;;;;5.00;99.90;;;;;;5032658;28;19913;-76
2021/03/16 03:45:00;;;;;;;;;;;5.10;99.90;;;;;;5032192;28;20394;-77
2021/03/16 03:47:26;;;;;;;;;;;5.10;99.90;;;;;;5032364;28;19916;-77
2021/03/16 03:49:52;;;;;;;;;;;5.10;99.90;;;;;;5033308;28;19996;-76
2021/03/16 03:52:17;;;;;;;;;;;5.10;99.90;;;;;;5032355;28;19953;-77
2021/03/16 03:54:44;;;;;;;;;;;5.10;99.90;;;;;;5031406;28;19967;-76
2021/03/16 03:57:10;;;;;;;;;;;5.10;99.90;;;;;;5032201;28;19916;-77
2021/03/16 03:59:39;;;;;;;;;;;5.10;99.90;;;;;;5031563;28;19920;-77
2021/03/16 04:02:04;;;;;;;;;;;5.20;99.90;;;;;;5031926;28;19909;-77
2021/03/16 04:04:30;;;;;;;;;;;5.20;99.90;;;;;;5033611;28;19909;-78
2021/03/16 04:06:57;;;;;;;;;;;5.20;99.90;;;;;;5033861;28;20369;-76
2021/03/16 04:09:22;;;;;;;;;;;5.20;99.90;;;;;;5035281;28;20288;-79
2021/03/16 04:11:48;;;;;;;;;;;5.10;99.90;;;;;;5033486;28;19917;-76
2021/03/16 04:14:14;;;;;;;;;;;5.10;99.90;;;;;;5033440;28;19913;-77
2021/03/16 04:16:40;;;;;;;;;;;5.20;99.90;;;;;;5031779;28;19909;-76
2021/03/16 04:19:06;;;;;;;;;;;5.20;99.90;;;;;;5031608;28;19909;-77
2021/03/16 04:21:31;;;;;;;;;;;5.10;99.90;;;;;;5032970;28;19909;-76
2021/03/16 04:23:57;;;;;;;;;;;5.30;99.90;;;;;;5032445;28;19992;-78
2021/03/16 04:26:22;;;;;;;;;;;5.30;99.90;;;;;;5033658;28;19909;-78
2021/03/16 04:28:48;;;;;;;;;;;5.20;99.90;;;;;;5034048;28;19909;-78
2021/03/16 04:31:13;;;;;;;;;;;5.20;99.90;;;;;;5033854;28;20009;-79
2021/03/16 04:33:38;;;;;;;;;;;5.20;99.90;;;;;;5031713;28;19920;-77
2021/03/16 04:36:04;;;;;;;;;;;5.10;99.90;;;;;;5031031;28;19913;-76
2021/03/16 04:38:30;;;;;;;;;;;5.10;99.90;;;;;;5032760;28;20292;-77
2021/03/16 04:40:55;;;;;;;;;;;5.10;99.90;;;;;;5032958;28;19920;-77
2021/03/16 04:43:21;;;;;;;;;;;5.00;99.90;;;;;;5035599;28;19940;-78
2021/03/16 04:45:46;;;;;;;;;;;4.90;99.90;;;;;;5032252;28;19909;-77
2021/03/16 04:48:12;;;;;;;;;;;4.90;99.90;;;;;;5031336;28;19909;-77
2021/03/16 04:50:37;;;;;;;;;;;4.90;99.90;;;;;;5032967;28;20275;-76
2021/03/16 04:53:03;;;;;;;;;;;4.90;99.90;;;;;;5031526;28;19913;-77
2021/03/16 04:55:30;;;;;;;;;;;4.80;99.90;;;;;;5032068;28;19981;-76
2021/03/16 04:57:56;;;;;;;;;;;4.80;99.90;;;;;;5031855;28;19995;-77
2021/03/16 05:00:21;;;;;;;;;;;4.80;99.90;;;;;;5031856;28;20363;-77
2021/03/16 05:02:47;;;;;;;;;;;4.70;99.90;;;;;;5032460;28;20000;-77
2021/03/16 05:05:12;;;;;;;;;;;4.70;99.90;;;;;;5032590;28;20265;-76
2021/03/16 05:07:38;;;;;;;;;;;4.60;99.90;;;;;;5035450;28;19971;-77
2021/03/16 05:10:04;;;;;;;;;;;4.60;99.90;;;;;;5034914;28;20012;-77
2021/03/16 05:12:29;;;;;;;;;;;4.70;99.90;;;;;;5035009;28;20376;-76
2021/03/16 05:14:55;;;;;;;;;;;4.70;99.90;;;;;;5034644;28;19959;-77
2021/03/16 05:17:20;;;;;;;;;;;4.70;99.90;;;;;;5035481;28;20160;-77
2021/03/16 05:19:46;;;;;;;;;;;4.70;99.90;;;;;;5036468;28;19913;-77
2021/03/16 05:22:11;;;;;;;;;;;4.70;99.90;;;;;;5034829;28;19910;-77
2021/03/16 05:24:37;;;;;;;;;;;4.70;99.90;;;;;;5035579;28;19909;-77
2021/03/16 05:27:03;;;;;;;;;;;4.60;99.90;;;;;;5034887;28;19964;-77
2021/03/16 05:29:28;;;;;;;;;;;4.70;99.90;;;;;;5033614;28;19992;-77
2021/03/16 05:31:54;;;;;;;;;;;4.70;99.90;;;;;;5035685;28;19917;-76
2021/03/16 05:34:19;;;;;;;;;;;4.70;99.90;;;;;;5035681;28;19917;-77
2021/03/16 05:36:44;;;;;;;;;;;4.60;99.90;;;;;;5034624;28;19908;-77
2021/03/16 05:39:10;;;;;;;;;;;4.60;99.90;;;;;;5034062;28;19913;-77
2021/03/16 05:41:36;;;;;;;;;;;4.60;99.90;;;;;;5035504;28;19913;-76
2021/03/16 05:44:01;;;;;;;;;;;4.50;99.90;;;;;;5034310;28;20015;-77
2021/03/16 05:46:27;;;;;;;;;;;4.50;99.90;;;;;;5034514;28;19961;-76
2021/03/16 05:48:54;;;;;;;;;;;4.60;99.90;;;;;;5034908;28;20273;-77
2021/03/16 05:51:20;;;;;;;;;;;4.60;99.90;;;;;;5033007;28;19913;-77
2021/03/16 05:53:49;;;;;;;;;;;4.60;99.90;;;;;;5031769;28;19917;-77
2021/03/16 05:56:15;;;;;;;;;;;4.70;99.90;;;;;;5034532;28;19909;-77
2021/03/16 05:58:40;;;;;;;;;;;4.70;99.90;;;;;;5034405;28;19913;-77
2021/03/16 06:01:06;;;;;;;;;;;4.80;99.90;;;;;;5034364;28;19974;-76
2021/03/16 06:03:31;;;;;;;;;;;4.80;99.90;;;;;;5035683;28;20007;-77
2021/03/16 06:05:57;;;;;;;;;;;4.80;99.90;;;;;;5036459;28;19913;-78
2021/03/16 06:08:22;;;;;;;;;;;4.80;99.90;;;;;;5035490;28;19916;-77
2021/03/16 06:10:48;;;;;;;;;;;4.80;99.90;;;;;;5036861;28;20004;-78
2021/03/16 06:13:15;;;;;;;;;;;4.80;99.90;;;;;;5046115;28;19917;-78
2021/03/16 06:15:42;;;;;;;;;;;4.90;99.90;;;;;;5051842;28;19913;-77
2021/03/16 06:18:11;;;;;;;;;;;5.00;99.90;;;;;;5050768;28;20333;-79
2021/03/16 06:20:37;;;;;;;;;;;5.10;99.90;;;;;;5054809;28;19962;-77
2021/03/16 06:23:03;;;;;;;;;;;5.10;99.90;;;;;;5054596;28;19912;-76
2021/03/16 06:25:29;;;;;;;;;;;5.20;99.90;;;;;;5053959;28;19915;-78
2021/03/16 06:28:05;;;;;;;;;;;5.30;99.90;;;;;;5054152;28;19956;-78
2021/03/16 06:30:31;;;;;;;;;;;5.30;99.90;;;;;;5054688;28;20310;-78
2021/03/16 06:32:59;;;;;;;;;;;5.30;99.90;;;;;;5054055;28;19924;-78
2021/03/16 06:35:25;;;;;;;;;;;5.30;99.90;;;;;;5053768;28;19909;-77
2021/03/16 06:38:01;;;;;;;;;;;5.40;99.90;;;;;;5054374;28;19959;-78
2021/03/16 06:40:27;;;;;;;;;;;5.40;99.90;;;;;;5054336;28;19920;-78
2021/03/16 06:43:06;;;;;;;;;;;5.30;99.90;;;;;;5054328;28;19916;-78
2021/03/16 06:45:33;;;;;;;;;;;5.30;99.90;;;;;;5054825;28;19915;-76
2021/03/16 06:47:59;;;;;;;;;;;5.40;99.90;;;;;;5055263;28;19952;-79
2021/03/16 06:50:28;;;;;;;;;;;5.40;99.90;;;;;;5052297;28;19915;-79
2021/03/16 06:52:53;;;;;;;;;;;5.50;99.90;;;;;;5044056;28;19940;-77
2021/03/16 06:55:19;;;;;;;;;;;5.50;99.90;;;;;;5053980;28;20395;-78
2021/03/16 06:57:45;;;;;;;;;;;5.50;99.90;;;;;;5053874;28;19909;-79
2021/03/16 07:00:11;;;;;;;;;;;5.60;99.90;;;;;;5053984;28;19920;-75
2021/03/16 07:02:43;;;;;;;;;;;5.60;99.90;;;;;;5043729;28;19913;-78
2021/03/16 07:05:09;;;;;;;;;;;5.50;99.90;;;;;;5041611;28;19910;-79
2021/03/16 07:07:34;;;;;;;;;;;5.50;99.90;;;;;;5053903;28;19916;-76
2021/03/16 07:10:01;;;;;;;;;;;5.50;99.90;;;;;;5052222;28;19909;-78
2021/03/16 07:12:32;;;;;;;;;;;5.50;99.90;;;;;;5052640;28;19912;-77
2021/03/16 07:14:59;;;;;;;;;;;5.40;99.90;;;;;;5053784;28;20417;-78
2021/03/16 07:17:25;;;;;;;;;;;5.30;99.90;;;;;;5052680;28;19909;-78
2021/03/16 07:19:51;;;;;;;;;;;5.30;99.90;;;;;;5052984;28;19958;-79
2021/03/16 07:22:20;;;;;;;;;;;5.30;99.90;;;;;;5054367;28;19919;-77
2021/03/16 07:24:49;;;;;;;;;;;5.40;99.90;;;;;;5051630;28;19958;-78
2021/03/16 07:27:14;;;;;;;;;;;5.50;99.90;;;;;;5046143;28;19912;-78
2021/03/16 07:29:40;;;;;;;;;;;5.60;99.90;;;;;;5034815;28;19909;-78
2021/03/16 07:32:07;;;;;;;;;;;5.60;99.90;;;;;;5033975;28;19923;-78
2021/03/16 07:34:32;;;;;;;;;;;5.70;99.90;;;;;;5031263;28;19920;-79
2021/03/16 07:37:00;;;;;;;;;;;5.70;99.90;;;;;;5032376;28;19909;-79
2021/03/16 07:39:26;;;;;;;;;;;5.80;99.90;;;;;;5032528;28;20019;-78
2021/03/16 07:41:51;;;;;;;;;;;5.60;99.90;;;;;;5032323;28;19944;-78
2021/03/16 07:44:18;;;;;;;;;;;5.60;99.90;;;;;;5042325;28;19909;-77
2021/03/16 07:46:53;;;;;;;;;;;5.50;99.90;;;;;;5053842;28;19916;-78
2021/03/16 07:49:29;;;;;;;;;;;5.60;99.90;;;;;;5054980;28;19909;-79
2021/03/16 07:51:54;;;;;;;;;;;5.50;99.90;;;;;;5044373;28;19913;-77
2021/03/16 07:54:21;;;;;;;;;;;5.50;99.90;;;;;;5042159;28;19912;-77
2021/03/16 07:56:56;;;;;;;;;;;5.60;99.90;;;;;;5042828;28;19931;-78
2021/03/16 07:59:31;;;;;;;;;;;5.60;99.90;;;;;;5049376;28;19983;-78
2021/03/16 08:01:57;;;;;;;;;;;5.60;99.90;;;;;;5032156;28;20027;-78
2021/03/16 08:04:31;;;;;;;;;;;5.70;99.90;;;;;;5033069;28;20376;-77
2021/03/16 08:07:01;;;;;;;;;;;5.70;99.90;;;;;;5031503;28;19909;-77
2021/03/16 08:09:26;;;;;;;;;;;5.70;99.90;;;;;;5031029;28;19966;-77
2021/03/16 08:11:52;;;;;;;;;;;5.90;99.90;;;;;;5031982;28;20019;-77
2021/03/16 08:14:25;;;;;;;;;;;5.90;99.90;;;;;;5030531;28;19928;-78
2021/03/16 08:16:50;;;;;;;;;;;6.10;99.90;;;;;;5030904;28;19963;-77
2021/03/16 08:19:18;;;;;;;;;;;6.20;99.90;;;;;;5031911;28;19916;-75
2021/03/16 08:21:44;;;;;;;;;;;6.30;99.90;;;;;;5038240;28;19957;-78
2021/03/16 08:24:10;;;;;;;;;;;6.40;99.90;;;;;;5048030;28;19940;-78
2021/03/16 08:26:44;;;;;;;;;;;6.50;99.90;;;;;;5032894;28;20007;-77
2021/03/16 08:29:10;;;;;;;;;;;6.60;99.90;;;;;;5050953;28;19931;-78
2021/03/16 08:31:36;;;;;;;;;;;6.80;99.90;;;;;;5050387;28;20029;-78
2021/03/16 08:34:01;;;;;;;;;;;6.90;99.90;;;;;;5049716;28;19935;-80
2021/03/16 08:36:27;;;;;;;;;;;7.00;99.90;;;;;;5052052;28;19905;-77
2021/03/16 08:38:53;;;;;;;;;;;7.30;99.90;;;;;;5050541;28;19904;-78
2021/03/16 08:41:19;;;;;;;;;;;7.70;99.90;;;;;;5049195;28;20354;-77
2021/03/16 08:43:48;;;;;;;;;;;8.00;99.90;;;;;;5050390;28;20349;-79
2021/03/16 08:46:14;;;;;;;;;;;8.10;99.90;;;;;;5049732;28;20363;-78
2021/03/16 08:48:41;;;;;;;;;;;8.00;99.90;;;;;;5050258;28;20063;-77
2021/03/16 08:51:06;;;;;;;;;;;8.20;99.90;;;;;;5049951;28;19958;-77
2021/03/16 08:53:32;;;;;;;;;;;8.20;99.90;;;;;;5050772;28;20007;-79
2021/03/16 08:55:58;;;;;;;;;;;8.20;99.90;;;;;;5050189;28;20027;-77
2021/03/16 08:58:24;;;;;;;;;;;8.40;99.90;;;;;;5050771;28;19905;-79
2021/03/16 09:00:49;;;;;;;;;;;8.60;99.90;;;;;;5051882;28;19975;-76
2021/03/16 09:03:15;;;;;;;;;;;8.50;99.90;;;;;;5051677;28;20024;-77
2021/03/16 09:05:41;;;;;;;;;;;8.50;99.90;;;;;;5050017;28;20135;-78
2021/03/16 09:08:07;;;;;;;;;;;8.30;99.90;;;;;;5050462;28;20048;-77
2021/03/16 09:10:32;;;;;;;;;;;8.10;99.90;;;;;;5050571;28;19905;-77
2021/03/16 09:12:58;;;;;;;4.20;0.80;;;8.10;99.90;;;;;;5052223;28;20059;-76
2021/03/16 09:15:26;;;;;;;1.02;0.60;;;7.90;99.90;;;;;;5052509;28;20021;-76
2021/03/16 09:17:54;;;;;;;2.63;1.40;;;7.80;99.90;;;;;;5050074;28;20025;-76
2021/03/16 09:20:26;;;;;;;3.78;0.75;;;7.90;99.90;;;;;;5051122;28;20571;-77
2021/03/16 09:22:54;;;;;;;1.73;0.77;;;7.70;99.90;;;;;;5041007;28;20013;-78
2021/03/16 09:25:27;;;;;;;8.30;1.30;;;7.80;99.90;;;;;;5037991;28;20017;-77
2021/03/16 09:28:00;;;;;;;1.85;0.63;;;7.70;99.90;;;;;;5030688;28;20033;-77
2021/03/16 09:30:55;;;;;;;;;;;7.80;99.90;;;;;;5031077;28;20223;-78
2021/03/16 09:33:22;;;;;;;;;;;7.90;99.90;;;;;;5034148;28;20103;-76
2021/03/16 09:35:55;;;;;;;;;;;7.80;99.90;;;;;;5036484;28;19912;-76
2021/03/16 09:38:20;;;;;;;;;;;7.90;99.90;;;;;;5042013;28;19919;-76
2021/03/16 09:40:45;;;;;;;;;;;8.30;99.90;;;;;;5046252;28;19913;-77
2021/03/16 09:43:19;;;;;;;;;;;8.50;99.90;;;;;;5050446;28;19967;-77
2021/03/16 09:45:52;;;;;;;;;;;8.60;99.90;;;;;;5051495;28;20253;-77
2021/03/16 09:48:21;;;;;;;;;;;8.60;99.90;;;;;;5049541;28;19909;-79
2021/03/16 09:50:47;;;;;;;;;;;8.70;99.90;;;;;;5050965;28;20323;-78
2021/03/16 09:53:16;;;;;;;;;;;8.70;99.90;;;;;;5052830;28;19913;-76
2021/03/16 09:55:42;;;;;;;;;;;8.50;99.90;;;;;;5054012;28;20431;-76
2021/03/16 09:58:19;;;;;;;1.67;0.55;;;8.60;99.90;;;;;;5054645;28;19946;-77
2021/03/16 10:00:49;;;;;;;6.53;1.02;;;8.40;99.90;;;;;;5055611;28;20123;-77
2021/03/16 10:03:17;;;;;;;1.90;0.80;;;8.40;99.90;;;;;;5053703;28;20032;-78
2021/03/16 10:05:46;;;;;;;;;;;8.50;99.90;;;;;;5053120;28;20056;-77
2021/03/16 10:08:21;;;;;;;;;;;8.40;99.90;;;;;;5054163;28;19916;-76
2021/03/16 10:10:46;;;;;;;;;;;8.50;99.90;;;;;;5054362;28;19913;-76
2021/03/16 10:13:13;;;;;;;;;;;8.70;99.90;;;;;;5052107;28;19909;-77
2021/03/16 10:15:43;;;;;;;;;;;8.90;99.90;;;;;;5055581;28;19994;-77
2021/03/16 10:18:09;;;;;;;;;;;9.00;99.90;;;;;;5056872;28;19927;-76
2021/03/16 10:20:36;;;;;;;;;;;9.20;99.90;;;;;;5054472;28;19904;-77
2021/03/16 10:23:04;;;;;;;;;;;9.20;99.90;;;;;;5053067;28;20002;-78
2021/03/16 10:25:31;;;;;;;;;;;9.20;99.90;;;;;;5047309;28;24103;-84
2021/03/16 10:27:59;;;;;;;;;;;9.40;99.90;;;;;;5056247;28;19943;-81
2021/03/16 10:30:43;;;;;;;;;;;9.50;99.90;;;;;;5060698;28;19944;-80
2021/03/16 10:33:09;;;;;;;;;;;9.70;99.90;;;;;;5056880;28;19913;-78
2021/03/16 10:35:36;;;;;;;;;;;9.50;99.90;;;;;;5046608;28;19905;-79
2021/03/16 10:38:03;;;;;;;;;;;9.50;99.90;;;;;;5048600;28;19916;-81
2021/03/16 10:40:28;;;;;;;;;;;9.50;99.90;;;;;;5054079;28;19909;-78
2021/03/16 10:42:54;;;;;;;;;;;9.40;99.90;;;;;;5048771;28;19916;-80
2021/03/16 10:45:19;;;;;;;;;;;9.30;99.90;;;;;;5047568;28;19904;-79
2021/03/16 10:47:45;;;;;;;;;;;9.20;99.90;;;;;;5051898;28;20058;-77
2021/03/16 10:50:11;;;;;;;;;;;9.10;99.90;;;;;;5055223;28;19908;-78
2021/03/16 10:52:36;;;;;;;;;;;9.20;99.90;;;;;;5056675;28;20023;-79
2021/03/16 10:55:02;;;;;;;;;;;9.00;99.90;;;;;;5056046;28;19995;-79
2021/03/16 10:57:28;;;;;;;;;;;8.80;99.90;;;;;;5053870;28;19912;-77
2021/03/16 10:59:53;;;;;;;;;;;8.60;99.90;;;;;;5055317;28;19973;-78
2021/03/16 11:02:19;;;;;;;;;;;8.70;99.90;;;;;;5055180;28;20342;-78
2021/03/16 11:04:44;;;;;;;;;;;8.70;99.90;;;;;;5054916;28;19905;-77
2021/03/16 11:07:10;;;;;;;;;;;8.90;99.90;;;;;;5054378;28;20410;-78
2021/03/16 11:09:35;;;;;;;;;;;9.00;99.90;;;;;;5053602;28;19905;-78
2021/03/16 11:12:01;;;;;;;;;;;9.20;99.90;;;;;;5053956;28;19951;-78
2021/03/16 11:14:26;;;;;;;;;;;9.30;99.90;;;;;;5054418;28;19962;-78
2021/03/16 11:16:52;;;;;;;;;;;9.40;99.90;;;;;;5054938;28;19908;-78
2021/03/16 11:19:17;;;;;;;;;;;9.40;99.90;;;;;;5054204;28;19904;-75
2021/03/16 11:21:43;;;;;;;;;;;9.50;99.90;;;;;;5054027;28;19905;-77
2021/03/16 11:24:09;;;;;;;;;;;9.50;99.90;;;;;;5052042;28;19905;-77
2021/03/16 11:26:34;;;;;;;;;;;9.70;99.90;;;;;;5053838;28;19972;-77
2021/03/16 11:29:01;;;;;;;;;;;9.70;99.90;;;;;;5053751;28;19959;-75
2021/03/16 11:31:26;;;;;;;;;;;9.50;99.90;;;;;;5052298;28;19909;-77
2021/03/16 11:33:52;;;;;;;;;;;9.30;99.90;;;;;;5051948;28;19962;-77
2021/03/16 11:36:17;;;;;;;;;;;9.30;99.90;;;;;;5039171;28;19909;-76
2021/03/16 11:38:43;;;;;;;;;;;9.30;99.90;;;;;;5044875;28;19911;-77
2021/03/16 11:41:08;;;;;;;;;;;9.30;99.90;;;;;;5051922;28;20433;-76
2021/03/16 11:43:34;;;;;;;;;;;9.30;99.90;;;;;;5049595;28;19909;-76
2021/03/16 11:46:00;;;;;;;;;;;9.30;99.90;;;;;;5045710;28;19916;-77
2021/03/16 11:48:25;;;;;;;;;;;9.40;99.90;;;;;;5042348;28;20311;-77
2021/03/16 11:50:51;;;;;;;;;;;9.50;99.90;;;;;;5039794;28;20259;-77
2021/03/16 11:53:16;;;;;;;;;;;9.50;99.90;;;;;;5041606;28;19924;-77
2021/03/16 11:55:42;;;;;;;;;;;9.70;99.90;;;;;;5042668;28;19905;-76
2021/03/16 11:58:07;;;;;;;;;;;9.90;99.90;;;;;;5044838;28;19912;-78
2021/03/16 12:00:32;;;;;;;;;;;10.00;99.90;;;;;;5044113;28;19904;-77
2021/03/16 12:02:58;;;;;;;;;;;10.20;99.90;;;;;;5038393;28;19911;-76
2021/03/16 12:05:23;;;;;;;;;;;10.90;99.90;;;;;;5040677;28;19986;-78
2021/03/16 12:07:49;;;;;;;;;;;11.70;99.90;;;;;;5043684;28;19905;-78
2021/03/16 12:10:15;;;;;;;7.00;1.10;;;12.10;99.90;;;;;;5048043;28;20270;-78
2021/03/16 12:12:40;;;;;;;1.00;0.45;;;12.20;99.90;;;;;;5058996;28;20029;-78
2021/03/16 12:15:07;;;;;;;;;;;12.60;99.90;;;;;;5059175;28;20350;-79
2021/03/16 12:17:33;;;;;;;;;;;12.30;99.90;;;;;;5054189;28;20030;-76
2021/03/16 12:19:58;;;;;;;;;;;11.90;99.90;;;;;;5052687;28;19904;-77
2021/03/16 12:22:24;;;;;;;;;;;11.70;99.90;;;;;;5052725;28;19911;-78
2021/03/16 12:24:49;;;;;;;;;;;10.90;99.90;;;;;;5054717;28;20031;-77
2021/03/16 12:27:15;;;;;;;;;;;10.70;99.90;;;;;;5055659;28;19904;-75
2021/03/16 12:29:40;;;;;;;;;;;10.50;99.90;;;;;;5056175;28;20463;-78
2021/03/16 12:32:07;;;;;;;;;;;10.30;99.90;;;;;;5052211;28;19988;-77
2021/03/16 12:34:34;;;;;;;;;;;10.00;99.90;;;;;;5044029;28;20372;-78
2021/03/16 12:36:59;;;;;;;;;;;10.00;99.90;;;;;;5040463;28;19932;-77
2021/03/16 12:39:25;;;;;;;;;;;9.90;99.90;;;;;;5037050;28;19963;-76
2021/03/16 12:41:51;;;;;;;;;;;9.90;99.90;;;;;;5053873;28;19912;-78
2021/03/16 12:44:16;;;;;;;;;;;9.80;99.90;;;;;;5052631;28;19913;-77
2021/03/16 12:46:42;;;;;;;;;;;9.80;99.90;;;;;;5047561;28;19913;-77
2021/03/16 12:49:07;;;;;;;;;;;10.00;99.90;;;;;;5053714;28;20053;-79
2021/03/16 12:51:32;;;;;;;;;;;10.00;99.90;;;;;;5050726;28;19920;-78
2021/03/16 12:53:58;;;;;;;;;;;10.00;99.90;;;;;;5035362;28;20386;-78
2021/03/16 12:56:23;;;;;;;;;;;10.10;99.90;;;;;;5034584;28;19916;-77
2021/03/16 12:58:49;;;;;;;;;;;10.30;99.90;;;;;;5034087;28;19909;-79
2021/03/16 13:01:14;;;;;;;;;;;10.40;99.90;;;;;;5034344;28;19937;-78
2021/03/16 13:03:40;;;;;;;;;;;10.50;99.90;;;;;;5035370;28;19908;-77
2021/03/16 13:06:05;;;;;;;;;;;10.40;99.90;;;;;;5033700;28;19917;-78
2021/03/16 13:08:31;;;;;;;;;;;10.40;99.90;;;;;;5034002;28;19916;-78
2021/03/16 13:10:56;;;;;;;;;;;10.50;99.90;;;;;;5035422;28;19913;-78
2021/03/16 13:13:22;;;;;;;;;;;10.80;99.90;;;;;;5033681;28;19913;-79
2021/03/16 13:15:47;;;;;;;;;;;10.80;99.90;;;;;;5034269;28;19909;-77
2021/03/16 13:18:13;;;;;;;;;;;10.80;99.90;;;;;;5051756;28;19909;-79
2021/03/16 13:20:38;;;;;;;;;;;11.00;99.90;;;;;;5048154;28;20030;-77
2021/03/16 13:23:04;;;;;;;;;;;10.80;99.90;;;;;;5041788;28;20304;-78
2021/03/16 13:25:30;;;;;;;;;;;10.80;99.90;;;;;;5033037;28;19910;-77
2021/03/16 13:28:01;;;;;;;;;;;10.60;99.90;;;;;;5036425;28;20015;-78
2021/03/16 13:30:27;;;;;;;;;;;10.50;99.90;;;;;;5038679;28;19913;-79
2021/03/16 13:32:52;;;;;;;;;;;10.30;99.90;;;;;;5040616;28;20292;-77
2021/03/16 13:35:18;;;;;;;;;;;10.40;99.90;;;;;;5036644;28;19909;-78
2021/03/16 13:37:44;;;;;;;;;;;10.30;99.90;;;;;;5037357;28;20316;-79
2021/03/16 13:40:10;;;;;;;;;;;10.30;99.90;;;;;;5038671;28;19955;-78
2021/03/16 13:42:35;;;;;;;;;;;10.40;99.90;;;;;;5038161;28;19978;-80
2021/03/16 13:45:01;;;;;;;;;;;10.20;99.90;;;;;;5035793;28;19909;-80
2021/03/16 13:47:35;;;;;;;;;;;10.10;99.90;;;;;;5036290;28;20254;-79
2021/03/16 13:50:01;;;;;;;;;;;9.90;99.90;;;;;;5037250;28;19917;-76
2021/03/16 13:52:26;;;;;;;;;;;9.90;99.90;;;;;;5038491;28;20288;-78
2021/03/16 13:54:52;;;;;;;;;;;9.90;99.90;;;;;;5036970;28;20055;-76
2021/03/16 13:57:17;;;;;;;;;;;10.10;99.90;;;;;;5035847;28;19963;-77
2021/03/16 13:59:43;;;;;;;;;;;10.00;99.90;;;;;;5035326;28;19909;-77
2021/03/16 14:02:08;;;;;;;;;;;9.90;99.90;;;;;;5037384;28;20519;-78
2021/03/16 14:04:34;;;;;;;;;;;10.10;99.90;;;;;;5035115;28;19909;-76
2021/03/16 14:06:59;;;;;;;;;;;9.90;99.90;;;;;;5035898;28;19916;-77
2021/03/16 14:09:25;;;;;;;;;;;9.90;99.90;;;;;;5036612;28;19916;-78
2021/03/16 14:11:50;;;;;;;;;;;9.90;99.90;;;;;;5035141;28;19916;-77
2021/03/16 14:14:16;;;;;;;;;;;10.00;99.90;;;;;;5034174;28;19913;-77
2021/03/16 14:16:41;;;;;;;;;;;10.00;99.90;;;;;;5036298;28;19914;-78
2021/03/16 14:19:07;;;;;;;;;;;10.00;99.90;;;;;;5036841;28;20375;-77
2021/03/16 14:21:32;;;;;;;;;;;9.80;99.90;;;;;;5035739;28;19917;-77